createdAt,value
2019-03-31T00:02:44.059Z,52.44
2019-03-31T00:07:53.054Z,54.32
2019-03-31T00:13:02.043Z,76.57
2019-03-31T00:18:14.168Z,55.14
2019-03-31T00:23:13.166Z,54.62
2019-03-31T00:28:22.150Z,56.66
2019-03-31T00:33:31.230Z,53.19
2019-03-31T00:38:40.246Z,82.54
2019-03-31T00:43:49.253Z,55.93
2019-03-31T00:48:58.247Z,53.69
2019-03-31T00:54:07.319Z,62.27
2019-03-31T00:59:16.302Z,67.99
2019-03-31T01:04:25.330Z,54.32
2019-03-31T01:09:34.339Z,56.53
2019-03-31T01:14:43.322Z,71.20
2019-03-31T01:19:52.330Z,53.33
2019-03-31T01:25:01.404Z,76.41
2019-03-31T01:30:10.385Z,78.02
2019-03-31T01:35:19.479Z,61.64
2019-03-31T01:40:28.464Z,78.83
2019-03-31T01:45:37.522Z,48.34
2019-03-31T01:50:46.518Z,56.47
2019-03-31T01:55:55.522Z,75.04
2019-03-31T02:01:04.478Z,58.02
2019-03-31T02:06:13.454Z,57.71
2019-03-31T02:11:22.446Z,79.86
2019-03-31T02:16:31.450Z,59.21
2019-03-31T02:21:40.462Z,77.03
2019-03-31T02:26:49.466Z,58.23
2019-03-31T02:31:58.482Z,60.04
2019-03-31T02:37:07.466Z,71.48
2019-03-31T02:42:16.443Z,55.57
2019-03-31T02:47:25.417Z,59.17
2019-03-31T02:52:34.491Z,55.87
2019-03-31T02:57:43.474Z,60.96
2019-03-31T03:02:52.670Z,63.67
2019-03-31T03:08:01.769Z,72.23
2019-03-31T03:13:10.670Z,64.25
2019-03-31T03:18:19.710Z,89.34
2019-03-31T03:23:28.709Z,96.70
2019-03-31T03:28:37.739Z,64.45
2019-03-31T03:33:46.769Z,60.28
2019-03-31T03:38:55.766Z,89.81
2019-03-31T03:44:04.761Z,63.24
2019-03-31T03:49:13.885Z,63.72
2019-03-31T03:54:22.257Z,79.07
2019-03-31T03:59:31.322Z,60.52
2019-03-31T04:04:40.328Z,52.85
2019-03-31T04:09:49.356Z,50.82
2019-03-31T04:14:58.328Z,63.18
2019-03-31T04:20:07.441Z,43.30
2019-03-31T04:25:16.427Z,36.11
2019-03-31T04:30:25.423Z,45.12
2019-03-31T04:35:34.408Z,32.92
2019-03-31T04:40:43.419Z,30.06
2019-03-31T04:45:52.432Z,21.21
2019-03-31T04:51:01.450Z,28.29
2019-03-31T04:56:10.445Z,23.49
2019-03-31T05:01:19.478Z,22.45
2019-03-31T05:06:28.462Z,16.17
2019-03-31T05:11:37.526Z,21.62
2019-03-31T05:16:46.514Z,18.89
2019-03-31T05:21:55.514Z,25.19
2019-03-31T05:27:04.506Z,16.26
2019-03-31T05:32:13.511Z,25.16
2019-03-31T05:37:22.582Z,32.52
2019-03-31T05:42:31.585Z,22.31
2019-03-31T05:47:40.633Z,25.83
2019-03-31T05:52:49.694Z,22.95
2019-03-31T05:57:58.675Z,24.98
2019-03-31T06:03:07.686Z,22.23
2019-03-31T06:08:16.630Z,32.36
2019-03-31T06:13:25.624Z,36.39
2019-03-31T06:18:34.574Z,23.84
2019-03-31T06:23:43.550Z,20.29
2019-03-31T06:28:52.507Z,15.69
2019-03-31T06:34:01.530Z,34.54
2019-03-31T06:39:10.546Z,25.08
2019-03-31T06:44:19.574Z,22.14
2019-03-31T06:49:28.578Z,25.32
2019-03-31T06:54:37.586Z,18.79
2019-03-31T06:59:46.552Z,23.67
2019-03-31T07:05:01.296Z,23.24
2019-03-31T07:10:04.035Z,17.01
2019-03-31T07:15:13.033Z,22.45
2019-03-31T07:20:22.095Z,20.74
2019-03-31T07:25:31.075Z,15.52
2019-03-31T07:30:40.232Z,25.50
2019-03-31T07:35:49.160Z,14.81
2019-03-31T07:41:11.714Z,12.23
2019-03-31T07:46:06.595Z,17.97
2019-03-31T07:51:19.183Z,19.18
2019-03-31T07:56:18.146Z,27.09
2019-03-31T08:01:27.163Z,10.99
2019-03-31T08:06:36.108Z,22.69
2019-03-31T08:11:45.055Z,23.88
2019-03-31T08:16:54.029Z,15.13
2019-03-31T08:22:03.030Z,14.24
2019-03-31T08:27:11.966Z,18.14
2019-03-31T08:32:21.006Z,16.59
2019-03-31T08:37:30.353Z,14.63
2019-03-31T08:42:39.370Z,16.98
2019-03-31T08:47:48.406Z,12.48
2019-03-31T08:52:57.410Z,13.40
2019-03-31T08:58:06.426Z,10.90
2019-03-31T09:03:15.470Z,11.73
2019-03-31T09:08:24.478Z,11.41
2019-03-31T09:13:33.450Z,11.37
2019-03-31T09:18:42.442Z,11.55
2019-03-31T09:23:51.426Z,9.29
2019-03-31T09:29:00.516Z,10.10
2019-03-31T09:34:09.553Z,8.14
2019-03-31T09:39:18.566Z,8.26
2019-03-31T09:44:30.143Z,6.64
2019-03-31T09:49:36.150Z,6.00
2019-03-31T09:54:45.130Z,10.44
2019-03-31T09:59:54.120Z,6.57
2019-03-31T10:05:03.662Z,4.77
2019-03-31T10:10:12.617Z,8.46
2019-03-31T10:15:21.664Z,4.24
2019-03-31T10:20:31.633Z,7.90
2019-03-31T10:25:39.094Z,7.15
2019-03-31T10:30:48.038Z,8.02
2019-03-31T10:35:56.997Z,8.15
2019-03-31T10:41:05.942Z,7.52
2019-03-31T10:46:15.138Z,6.95
2019-03-31T10:51:24.080Z,8.63
2019-03-31T10:56:33.054Z,10.30
2019-03-31T11:01:42.086Z,4.19
2019-03-31T11:06:58.934Z,7.78
2019-03-31T11:11:59.727Z,8.30
2019-03-31T11:17:08.711Z,8.60
2019-03-31T11:22:17.630Z,6.76
2019-03-31T11:27:26.570Z,6.22
2019-03-31T11:32:35.538Z,6.44
2019-03-31T11:37:44.546Z,5.33
2019-03-31T11:42:53.572Z,7.09
2019-03-31T11:48:02.590Z,6.98
2019-03-31T11:53:11.531Z,8.45
2019-03-31T11:58:20.540Z,3.57
2019-03-31T12:03:31.137Z,4.27
2019-03-31T12:08:38.094Z,6.07
2019-03-31T12:13:47.022Z,6.77
2019-03-31T12:18:56.102Z,3.44
2019-03-31T12:24:05.094Z,4.70
2019-03-31T12:29:14.205Z,4.67
2019-03-31T12:34:23.211Z,7.51
2019-03-31T12:39:32.275Z,5.12
2019-03-31T12:44:41.274Z,4.71
2019-03-31T12:49:50.334Z,6.22
2019-03-31T12:54:59.359Z,5.33
2019-03-31T13:00:08.344Z,3.06
2019-03-31T13:05:17.350Z,4.74
2019-03-31T13:10:26.366Z,3.57
2019-03-31T13:15:35.424Z,4.57
2019-03-31T13:20:44.410Z,3.83
2019-03-31T13:25:53.724Z,4.97
2019-03-31T13:31:02.745Z,1.90
2019-03-31T13:36:11.783Z,3.80
2019-03-31T13:41:20.758Z,4.10
2019-03-31T13:46:29.749Z,3.50
2019-03-31T13:51:38.810Z,4.63
2019-03-31T13:56:49.381Z,4.89
2019-03-31T14:01:59.932Z,6.35
2019-03-31T14:07:04.946Z,3.72
2019-03-31T14:12:13.982Z,3.36
2019-03-31T14:17:24.586Z,4.34
2019-03-31T14:22:31.578Z,2.71
2019-03-31T14:27:40.622Z,4.25
2019-03-31T14:32:49.729Z,4.26
2019-03-31T14:37:58.734Z,4.41
2019-03-31T14:43:07.795Z,3.57
2019-03-31T14:48:16.808Z,3.08
2019-03-31T14:53:25.826Z,4.00
2019-03-31T14:58:34.822Z,4.45
2019-03-31T15:03:43.834Z,5.84
2019-03-31T15:08:54.449Z,4.27
2019-03-31T15:14:01.411Z,4.47
2019-03-31T15:19:10.419Z,2.28
2019-03-31T15:24:19.427Z,2.90
2019-03-31T15:29:28.454Z,4.24
2019-03-31T15:34:37.442Z,3.70
2019-03-31T15:39:46.454Z,4.35
2019-03-31T15:44:55.462Z,4.87
2019-03-31T15:50:04.498Z,2.85
2019-03-31T15:55:13.486Z,3.82
2019-03-31T16:00:22.503Z,1.46
2019-03-31T16:05:31.502Z,4.15
2019-03-31T16:10:40.522Z,3.76
2019-03-31T16:15:49.464Z,5.39
2019-03-31T16:20:58.466Z,5.25
2019-03-31T16:26:07.464Z,5.31
2019-03-31T16:31:16.474Z,3.08
2019-03-31T16:36:25.422Z,7.97
2019-03-31T16:41:34.416Z,3.66
2019-03-31T16:46:43.458Z,7.45
2019-03-31T16:51:52.482Z,4.98
2019-03-31T16:57:01.438Z,2.28
2019-03-31T17:02:10.454Z,4.20
2019-03-31T17:07:19.406Z,4.16
2019-03-31T17:12:28.358Z,4.13
2019-03-31T17:17:37.298Z,3.13
2019-03-31T17:22:46.358Z,3.91
2019-03-31T17:27:55.370Z,9.43
2019-03-31T17:33:04.290Z,8.40
2019-03-31T17:38:13.302Z,4.76
2019-03-31T17:43:22.255Z,7.64
2019-03-31T17:48:31.327Z,2.40
2019-03-31T17:53:40.260Z,5.83
2019-03-31T17:58:49.270Z,7.11
2019-03-31T18:03:58.215Z,3.55
2019-03-31T18:09:07.184Z,3.12
2019-03-31T18:14:16.167Z,6.18
2019-03-31T18:19:25.136Z,7.74
2019-03-31T18:24:34.122Z,5.54
2019-03-31T18:29:43.126Z,7.82
2019-03-31T18:34:52.082Z,4.75
2019-03-31T18:40:01.086Z,4.19
2019-03-31T18:45:10.046Z,6.76
2019-03-31T18:50:19.034Z,5.97
2019-03-31T18:55:28.058Z,5.07
2019-03-31T19:00:37.070Z,5.73
2019-03-31T19:05:46.050Z,5.81
2019-03-31T19:10:55.042Z,5.21
2019-03-31T19:16:04.026Z,6.13
2019-03-31T19:21:13.223Z,7.99
2019-03-31T19:26:22.150Z,6.38
2019-03-31T19:31:31.222Z,5.44
2019-03-31T19:36:40.199Z,3.94
2019-03-31T19:41:49.222Z,9.93
2019-03-31T19:46:58.250Z,5.45
2019-03-31T19:52:07.290Z,5.13
2019-03-31T19:57:16.296Z,4.71
2019-03-31T20:02:25.468Z,6.64
2019-03-31T20:07:34.284Z,4.59
2019-03-31T20:12:43.274Z,5.15
2019-03-31T20:17:52.278Z,5.70
2019-03-31T20:23:01.246Z,5.88
2019-03-31T20:28:10.267Z,5.47
2019-03-31T20:33:19.262Z,6.51
2019-03-31T20:38:28.327Z,5.63
2019-03-31T20:43:37.299Z,7.66
2019-03-31T20:48:46.369Z,3.88
2019-03-31T20:53:55.366Z,5.28
2019-03-31T20:59:04.486Z,4.52
2019-03-31T21:04:13.482Z,6.22
2019-03-31T21:09:22.471Z,5.42
2019-03-31T21:14:31.462Z,4.31
2019-03-31T21:19:40.488Z,8.64
2019-03-31T21:24:49.486Z,7.69
2019-03-31T21:29:58.506Z,4.24
2019-03-31T21:35:07.532Z,6.54
2019-03-31T21:40:16.520Z,1.83
2019-03-31T21:45:25.590Z,6.48
2019-03-31T21:50:34.594Z,4.57
2019-03-31T21:55:43.594Z,4.73
2019-03-31T22:00:52.603Z,9.51
2019-03-31T22:06:01.644Z,5.92
2019-03-31T22:11:10.623Z,9.50
2019-03-31T22:16:19.690Z,3.88
2019-03-31T22:21:28.686Z,7.64
2019-03-31T22:26:37.690Z,6.34
2019-03-31T22:31:46.634Z,5.24
2019-03-31T22:36:55.706Z,4.73
2019-03-31T22:42:04.684Z,6.05
2019-03-31T22:47:13.738Z,5.96
2019-03-31T22:52:22.690Z,3.33
2019-03-31T22:57:31.781Z,6.86
2019-03-31T23:02:40.698Z,10.38
2019-03-31T23:07:49.802Z,7.79
2019-03-31T23:12:58.755Z,4.48
2019-03-31T23:18:07.813Z,8.15
2019-03-31T23:23:21.390Z,8.26
2019-03-31T23:28:20.405Z,5.12
2019-03-31T23:33:29.332Z,4.55
2019-03-31T23:38:38.342Z,3.69
2019-03-31T23:43:47.291Z,7.98
2019-03-31T23:48:56.315Z,3.95
2019-03-31T23:54:05.519Z,5.34
2019-03-31T23:59:14.482Z,4.60
